Time;durP1;ratioP1;P1;durP2;ratioP2;P2;SDS_P1;SDS_P2;PMS_P1;PMS_P2;Temp;Humidity;BMP_temperature;BMP_pressure;BME280_temperature;BME280_humidity;BME280_pressure;Samples;Min_cycle;Max_cycle;Signal;HPM_P1;HPM_P2
2021/12/19 00:01:08;;;;;;;223.50;112.03;;;;;;;;;;5073840;28;20032;-75
2021/12/19 00:09:01;;;;;;;84.43;47.15;;;;;;;;;;5075676;28;20179;-76
2021/12/19 00:11:27;;;;;;;89.85;49.85;;;;;;;;;;5074079;28;20020;-76
2021/12/19 00:13:53;;;;;;;77.63;43.47;;;;;;;;;;5073305;28;20144;-76
2021/12/19 00:16:18;;;;;;;100.72;50.78;;;;;;;;;;5075825;28;20016;-77
2021/12/19 00:18:46;;;;;;;97.00;49.00;;;;;;;;;;5074328;28;20444;-77
2021/12/19 00:21:12;;;;;;;86.32;45.05;;;;;;;;;;5076453;28;20027;-78
2021/12/19 00:23:38;;;;;;;74.38;40.33;;;;;;;;;;5075045;28;20030;-75
2021/12/19 00:26:03;;;;;;;70.70;37.63;;;;;;;;;;5075476;28;20028;-76
2021/12/19 00:28:29;;;;;;;77.10;42.92;;;;;;;;;;5078237;28;20435;-77
2021/12/19 00:30:54;;;;;;;82.00;45.47;;;;;;;;;;5080267;28;20135;-76
2021/12/19 00:33:20;;;;;;;61.47;31.30;;;;;;;;;;5073998;28;20366;-77
2021/12/19 00:35:45;;;;;;;66.43;34.30;;;;;;;;;;5073597;28;20028;-77
2021/12/19 00:38:10;;;;;;;94.65;41.90;;;;;;;;;;5074633;28;20036;-76
2021/12/19 00:40:37;;;;;;;130.45;52.63;;;;;;;;;;5075299;28;20074;-78
2021/12/19 00:43:12;;;;;;;95.72;42.72;;;;;;;;;;5074963;28;20025;-77
2021/12/19 00:45:40;;;;;;;70.32;36.15;;;;;;;;;;5076372;28;20062;-76
2021/12/19 00:48:06;;;;;;;56.80;33.30;;;;;;;;;;5075171;28;20048;-77
2021/12/19 00:50:32;;;;;;;54.00;31.13;;;;;;;;;;5073329;28;20167;-76
2021/12/19 00:52:58;;;;;;;51.00;29.50;;;;;;;;;;5073901;28;20551;-77
2021/12/19 00:55:24;;;;;;;61.72;36.90;;;;;;;;;;5073372;28;20028;-79
2021/12/19 00:57:50;;;;;;;47.95;27.77;;;;;;;;;;5074718;28;20012;-76
2021/12/19 01:00:17;;;;;;;37.78;21.20;;;;;;;;;;5075357;28;20462;-76
2021/12/19 01:02:43;;;;;;;31.48;18.70;;;;;;;;;;5074632;28;20016;-76
2021/12/19 01:05:09;;;;;;;39.63;20.17;;;;;;;;;;5074751;28;20394;-76
2021/12/19 01:07:34;;;;;;;40.38;21.60;;;;;;;;;;5074820;28;20371;-75
2021/12/19 01:10:00;;;;;;;51.08;23.38;;;;;;;;;;5074883;28;20027;-77
2021/12/19 01:12:26;;;;;;;53.03;25.52;;;;;;;;;;5073345;28;20020;-76
2021/12/19 01:14:52;;;;;;;39.28;20.65;;;;;;;;;;5075265;28;20026;-76
2021/12/19 01:17:17;;;;;;;32.47;20.10;;;;;;;;;;5073056;28;20020;-76
2021/12/19 01:19:44;;;;;;;38.72;23.25;;;;;;;;;;5074878;28;20024;-76
2021/12/19 01:22:10;;;;;;;100.55;46.58;;;;;;;;;;5075180;28;20074;-75
2021/12/19 01:24:35;;;;;;;120.38;54.22;;;;;;;;;;5073045;28;20034;-76
2021/12/19 01:27:01;;;;;;;125.80;58.88;;;;;;;;;;5082500;28;20028;-77
2021/12/19 01:29:26;;;;;;;144.10;65.28;;;;;;;;;;5098683;28;20123;-76
2021/12/19 01:31:51;;;;;;;132.68;64.55;;;;;;;;;;5097073;28;20019;-77
2021/12/19 01:34:17;;;;;;;93.50;48.10;;;;;;;;;;5097862;28;20103;-77
2021/12/19 01:36:43;;;;;;;63.83;34.08;;;;;;;;;;5098380;28;20047;-76
2021/12/19 01:39:09;;;;;;;39.38;23.40;;;;;;;;;;5097767;28;20469;-76
2021/12/19 01:41:34;;;;;;;37.58;23.15;;;;;;;;;;5099033;28;20425;-77
2021/12/19 01:44:00;;;;;;;40.88;23.63;;;;;;;;;;5098520;27;20051;-76
2021/12/19 01:46:25;;;;;;;34.90;22.40;;;;;;;;;;5097164;28;20023;-77
2021/12/19 01:48:51;;;;;;;34.10;19.70;;;;;;;;;;5099118;28;20019;-75
2021/12/19 01:51:16;;;;;;;35.78;20.42;;;;;;;;;;5097070;28;20111;-75
2021/12/19 01:53:41;;;;;;;33.67;20.25;;;;;;;;;;5098138;28;20016;-76
2021/12/19 01:56:07;;;;;;;54.17;31.02;;;;;;;;;;5098765;28;20008;-76
2021/12/19 01:58:33;;;;;;;33.83;21.30;;;;;;;;;;5097205;28;20032;-76
2021/12/19 02:00:59;;;;;;;29.77;17.90;;;;;;;;;;5096898;28;20510;-76
2021/12/19 02:03:25;;;;;;;27.98;16.48;;;;;;;;;;5096881;28;20473;-77
2021/12/19 02:05:50;;;;;;;31.48;17.98;;;;;;;;;;5096675;28;20689;-76
2021/12/19 02:08:16;;;;;;;29.20;17.20;;;;;;;;;;5096379;28;20024;-77
2021/12/19 02:10:42;;;;;;;24.80;14.65;;;;;;;;;;5099196;28;20031;-76
2021/12/19 02:13:10;;;;;;;25.80;16.73;;;;;;;;;;5094471;28;20015;-76
2021/12/19 02:15:36;;;;;;;26.20;16.55;;;;;;;;;;5098032;28;20144;-77
2021/12/19 02:18:05;;;;;;;24.67;14.00;;;;;;;;;;5096592;28;20514;-77
2021/12/19 02:20:32;;;;;;;21.55;12.68;;;;;;;;;;5096190;28;20027;-77
2021/12/19 02:22:57;;;;;;;34.03;19.73;;;;;;;;;;5096949;28;20016;-76
2021/12/19 02:25:22;;;;;;;28.75;16.58;;;;;;;;;;5096606;27;20027;-77
2021/12/19 02:27:48;;;;;;;27.70;16.05;;;;;;;;;;5094126;28;20370;-76
2021/12/19 02:30:13;;;;;;;25.08;14.80;;;;;;;;;;5096937;28;20124;-76
2021/12/19 02:32:40;;;;;;;32.92;20.70;;;;;;;;;;5094552;28;20462;-76
2021/12/19 02:35:09;;;;;;;28.73;17.77;;;;;;;;;;5095361;27;20019;-76
2021/12/19 02:48:25;;;;;;;29.77;19.35;;;;;;;;;;5080256;28;20114;-75
2021/12/19 02:50:53;;;;;;;40.33;23.73;;;;;;;;;;5095863;28;20521;-75
2021/12/19 02:53:29;;;;;;;36.72;21.00;;;;;;;;;;5097391;28;20015;-76
2021/12/19 02:55:55;;;;;;;31.63;19.23;;;;;;;;;;5095814;28;20085;-75
2021/12/19 02:58:20;;;;;;;33.47;20.05;;;;;;;;;;5097538;28;20023;-76
2021/12/19 03:00:46;;;;;;;36.85;21.60;;;;;;;;;;5097452;28;20022;-77
2021/12/19 03:03:11;;;;;;;33.88;20.83;;;;;;;;;;5098038;28;20018;-76
2021/12/19 03:05:37;;;;;;;29.25;18.05;;;;;;;;;;5095647;28;20023;-77
2021/12/19 03:08:03;;;;;;;22.20;13.80;;;;;;;;;;5097335;28;20071;-77
2021/12/19 03:18:32;;;;;;;17.63;11.45;;;;;;;;;;5096768;28;20120;-79
2021/12/19 03:20:57;;;;;;;17.85;11.70;;;;;;;;;;5095213;28;20469;-77
2021/12/19 03:23:23;;;;;;;15.43;10.30;;;;;;;;;;5095065;28;20052;-76
2021/12/19 03:25:48;;;;;;;18.48;12.55;;;;;;;;;;5095692;28;21105;-77
2021/12/19 03:28:14;;;;;;;19.63;10.57;;;;;;;;;;5096495;28;20015;-77
2021/12/19 03:30:41;;;;;;;18.35;10.82;;;;;;;;;;5095039;28;20442;-77
2021/12/19 03:33:07;;;;;;;17.02;10.23;;;;;;;;;;5094918;28;20430;-76
2021/12/19 03:35:32;;;;;;;17.85;11.40;;;;;;;;;;5095323;28;20102;-77
2021/12/19 03:37:59;;;;;;;17.85;11.85;;;;;;;;;;5094789;28;20022;-78
2021/12/19 03:40:35;;;;;;;23.95;15.30;;;;;;;;;;5095214;28;20035;-76
2021/12/19 03:43:01;;;;;;;23.67;14.43;;;;;;;;;;5097578;28;20060;-77
2021/12/19 03:45:26;;;;;;;26.55;15.80;;;;;;;;;;5095971;28;20094;-77
2021/12/19 03:47:52;;;;;;;28.17;16.45;;;;;;;;;;5094620;28;20104;-77
2021/12/19 03:50:21;;;;;;;28.98;16.92;;;;;;;;;;5095107;28;20051;-77
2021/12/19 03:52:47;;;;;;;32.35;17.55;;;;;;;;;;5096115;28;20014;-75
2021/12/19 03:55:12;;;;;;;32.60;18.65;;;;;;;;;;5094587;28;20739;-75
2021/12/19 03:57:37;;;;;;;34.40;20.55;;;;;;;;;;5096143;28;20011;-76
2021/12/19 04:00:05;;;;;;;105.63;48.50;;;;;;;;;;5094270;28;20047;-76
2021/12/19 04:02:30;;;;;;;64.35;30.67;;;;;;;;;;5094541;28;20092;-78
2021/12/19 04:04:57;;;;;;;49.38;25.90;;;;;;;;;;5094302;28;20506;-76
2021/12/19 04:07:23;;;;;;;103.40;62.10;;;;;;;;;;5094284;28;20047;-77
2021/12/19 04:09:49;;;;;;;77.93;48.35;;;;;;;;;;5095871;28;20027;-77
2021/12/19 04:12:15;;;;;;;55.90;35.38;;;;;;;;;;5093993;28;20040;-78
2021/12/19 04:14:41;;;;;;;46.40;26.05;;;;;;;;;;5096228;28;20083;-77
2021/12/19 04:17:06;;;;;;;30.02;18.08;;;;;;;;;;5096087;28;20454;-77
2021/12/19 04:19:31;;;;;;;46.85;27.27;;;;;;;;;;5096303;28;20019;-76
2021/12/19 04:21:58;;;;;;;36.55;22.50;;;;;;;;;;5095630;28;20016;-78
2021/12/19 04:24:23;;;;;;;44.10;23.83;;;;;;;;;;5094143;28;20122;-76
2021/12/19 04:26:48;;;;;;;31.50;15.50;;;;;;;;;;5095247;28;20137;-76
2021/12/19 04:29:14;;;;;;;27.00;15.18;;;;;;;;;;5096015;28;20106;-78
2021/12/19 04:31:40;;;;;;;28.92;17.17;;;;;;;;;;5094060;28;20016;-76
2021/12/19 04:34:05;;;;;;;33.38;23.42;;;;;;;;;;5095045;28;20023;-76
2021/12/19 04:36:36;;;;;;;32.17;19.35;;;;;;;;;;5095608;28;20016;-76
2021/12/19 05:00:19;;;;;;;54.35;26.95;;;;;;;;;;5096180;28;20066;-76
2021/12/19 05:03:02;;;;;;;46.70;24.83;;;;;;;;;;5099501;28;20024;-77
2021/12/19 05:16:08;;;;;;;48.90;23.40;;;;;;;;;;5098771;28;20092;-77
2021/12/19 05:18:37;;;;;;;37.50;18.88;;;;;;;;;;5098947;28;20451;-77
2021/12/19 05:21:11;;;;;;;33.15;18.90;;;;;;;;;;5097940;28;20874;-78
2021/12/19 05:26:11;;;;;;;27.08;15.93;;;;;;;;;;5099144;28;20088;-77
2021/12/19 05:28:37;;;;;;;35.78;20.33;;;;;;;;;;5098828;28;20028;-76
2021/12/19 05:31:02;;;;;;;35.22;21.48;;;;;;;;;;5097025;28;20110;-79
2021/12/19 05:33:28;;;;;;;33.70;21.00;;;;;;;;;;5098753;28;20015;-76
2021/12/19 05:44:10;;;;;;;209.05;97.60;;;;;;;;;;5097323;28;20030;-78
2021/12/19 05:46:35;;;;;;;425.05;186.93;;;;;;;;;;5098731;28;20024;-77
2021/12/19 05:49:01;;;;;;;192.52;78.03;;;;;;;;;;5098184;28;20571;-77
2021/12/19 05:51:27;;;;;;;472.92;235.63;;;;;;;;;;5099223;28;20365;-76
2021/12/19 05:53:52;;;;;;;389.67;166.82;;;;;;;;;;5098584;28;20012;-77
2021/12/19 05:56:18;;;;;;;194.68;84.70;;;;;;;;;;5096957;28;20018;-76
2021/12/19 05:58:43;;;;;;;185.90;88.05;;;;;;;;;;5096641;28;20047;-76
2021/12/19 06:01:08;;;;;;;290.15;147.80;;;;;;;;;;5096488;28;20019;-77
2021/12/19 06:03:34;;;;;;;149.20;71.13;;;;;;;;;;5098458;28;20019;-77
2021/12/19 06:05:59;;;;;;;60.70;33.03;;;;;;;;;;5098231;28;20424;-77
2021/12/19 06:08:24;;;;;;;57.60;33.13;;;;;;;;;;5099618;28;20096;-77
2021/12/19 06:10:50;;;;;;;78.15;55.50;;;;;;;;;;5098565;28;20030;-75
2021/12/19 06:13:15;;;;;;;72.57;51.30;;;;;;;;;;5098071;28;20035;-77
2021/12/19 06:15:41;;;;;;;41.85;25.63;;;;;;;;;;5098212;27;20090;-79
2021/12/19 06:18:06;;;;;;;43.47;27.17;;;;;;;;;;5097820;28;20059;-77
2021/12/19 06:20:31;;;;;;;53.38;32.90;;;;;;;;;;5098024;28;20962;-77
2021/12/19 06:22:57;;;;;;;125.95;78.60;;;;;;;;;;5096479;28;20182;-78
2021/12/19 06:25:23;;;;;;;131.45;76.82;;;;;;;;;;5098334;28;20122;-75
2021/12/19 06:27:48;;;;;;;117.03;65.88;;;;;;;;;;5096495;28;20024;-78
2021/12/19 06:30:13;;;;;;;91.70;54.88;;;;;;;;;;5096740;28;20027;-77
2021/12/19 06:32:39;;;;;;;72.90;41.22;;;;;;;;;;5096292;28;20016;-76
2021/12/19 06:35:08;;;;;;;64.20;37.33;;;;;;;;;;5098032;28;20024;-75
2021/12/19 06:37:38;;;;;;;52.47;32.78;;;;;;;;;;5098531;28;20011;-76
2021/12/19 06:40:26;;;;;;;69.45;40.33;;;;;;;;;;5098254;28;20047;-76
2021/12/19 06:42:56;;;;;;;92.70;58.70;;;;;;;;;;5084531;28;20028;-77
2021/12/19 06:45:22;;;;;;;61.50;38.15;;;;;;;;;;5077287;28;20069;-75
2021/12/19 06:47:47;;;;;;;64.05;39.38;;;;;;;;;;5083258;28;20024;-76
2021/12/19 06:50:15;;;;;;;83.18;51.28;;;;;;;;;;5095972;28;20522;-76
2021/12/19 06:52:40;;;;;;;74.07;43.10;;;;;;;;;;5095905;28;20015;-76
2021/12/19 06:55:06;;;;;;;55.80;33.22;;;;;;;;;;5098045;28;20019;-76
2021/12/19 06:57:32;;;;;;;39.80;24.52;;;;;;;;;;5097521;28;20128;-76
2021/12/19 06:59:57;;;;;;;51.47;29.85;;;;;;;;;;5095996;28;20039;-77
2021/12/19 07:02:23;;;;;;;59.60;35.28;;;;;;;;;;5076613;28;20016;-77
2021/12/19 07:04:49;;;;;;;53.17;32.63;;;;;;;;;;5075235;28;20115;-76
2021/12/19 07:07:14;;;;;;;45.35;27.20;;;;;;;;;;5076073;28;20103;-77
2021/12/19 07:09:39;;;;;;;67.63;35.95;;;;;;;;;;5077046;28;20024;-77
2021/12/19 07:12:06;;;;;;;91.75;48.88;;;;;;;;;;5076659;28;20439;-77
2021/12/19 07:14:31;;;;;;;71.10;41.67;;;;;;;;;;5074821;28;20016;-77
2021/12/19 07:16:56;;;;;;;78.03;41.35;;;;;;;;;;5076464;28;20016;-78
2021/12/19 07:19:22;;;;;;;47.28;24.80;;;;;;;;;;5076557;28;20031;-79
2021/12/19 07:21:47;;;;;;;40.08;25.85;;;;;;;;;;5076554;28;20018;-77
2021/12/19 07:24:12;;;;;;;147.75;80.07;;;;;;;;;;5076207;28;20077;-78
2021/12/19 07:26:38;;;;;;;132.60;75.15;;;;;;;;;;5076169;28;20024;-79
2021/12/19 07:29:03;;;;;;;105.93;61.30;;;;;;;;;;5074571;28;20024;-77
2021/12/19 07:31:30;;;;;;;202.13;107.40;;;;;;;;;;5074412;28;20020;-76
2021/12/19 07:33:56;;;;;;;64.03;36.63;;;;;;;;;;5076391;28;20020;-77
2021/12/19 07:36:24;;;;;;;52.72;31.23;;;;;;;;;;5075718;28;20018;-76
2021/12/19 07:38:55;;;;;;;95.50;55.15;;;;;;;;;;5075471;28;20044;-76
2021/12/19 07:41:21;;;;;;;257.55;127.60;;;;;;;;;;5083202;28;20362;-77
2021/12/19 07:43:46;;;;;;;127.93;68.78;;;;;;;;;;5096323;28;20388;-76
2021/12/19 07:46:11;;;;;;;114.32;66.85;;;;;;;;;;5094917;28;20462;-76
2021/12/19 07:48:37;;;;;;;180.95;117.00;;;;;;;;;;5096104;28;20152;-76
2021/12/19 07:51:02;;;;;;;138.35;88.38;;;;;;;;;;5094263;28;20019;-76
2021/12/19 07:53:27;;;;;;;111.75;72.35;;;;;;;;;;5097217;28;20521;-77
2021/12/19 07:55:53;;;;;;;113.57;68.00;;;;;;;;;;5094090;28;20358;-74
2021/12/19 07:58:18;;;;;;;120.90;68.38;;;;;;;;;;5096492;28;20012;-76
2021/12/19 08:00:43;;;;;;;155.73;93.72;;;;;;;;;;5095887;28;20016;-75
2021/12/19 08:03:09;;;;;;;211.57;121.35;;;;;;;;;;5095955;28;20015;-74
2021/12/19 08:05:34;;;;;;;159.30;87.43;;;;;;;;;;5095071;28;20023;-75
2021/12/19 08:08:02;;;;;;;155.30;80.03;;;;;;;;;;5096013;27;20026;-75
2021/12/19 08:13:05;;;;;;;62.15;36.60;;;;;;;;;;5088861;28;20035;-75
2021/12/19 08:15:34;;;;;;;54.80;32.10;;;;;;;;;;5082931;28;20016;-75
2021/12/19 08:17:59;;;;;;;54.35;32.65;;;;;;;;;;5095589;28;20103;-76
2021/12/19 08:20:27;;;;;;;59.53;38.45;;;;;;;;;;5095378;28;20114;-74
2021/12/19 08:23:09;;;;;;;105.32;63.17;;;;;;;;;;5095898;28;20644;-75
2021/12/19 08:25:35;;;;;;;94.97;67.82;;;;;;;;;;5093099;28;20031;-74
2021/12/19 08:28:00;;;;;;;78.43;50.78;;;;;;;;;;5094627;28;20144;-76
2021/12/19 08:30:27;;;;;;;86.15;56.22;;;;;;;;;;5093152;28;20153;-74
2021/12/19 08:32:55;;;;;;;71.38;41.33;;;;;;;;;;5094817;28;20012;-75
2021/12/19 08:35:20;;;;;;;56.50;36.63;;;;;;;;;;5093591;28;20332;-74
2021/12/19 08:37:46;;;;;;;43.85;29.25;;;;;;;;;;5095102;28;20026;-74
2021/12/19 08:40:12;;;;;;;36.28;24.58;;;;;;;;;;5095822;28;20040;-74
2021/12/19 08:42:37;;;;;;;26.95;16.13;;;;;;;;;;5095049;28;20099;-73
2021/12/19 08:45:04;;;;;;;29.73;20.88;;;;;;;;;;5093459;28;20019;-73
2021/12/19 08:47:29;;;;;;;37.70;27.25;;;;;;;;;;5095474;28;20141;-75
2021/12/19 08:49:54;;;;;;;31.08;22.10;;;;;;;;;;5094985;28;20106;-75
2021/12/19 08:52:20;;;;;;;34.05;23.98;;;;;;;;;;5093816;28;20473;-74
2021/12/19 08:54:45;;;;;;;38.03;26.55;;;;;;;;;;5096166;28;20446;-75
2021/12/19 08:57:10;;;;;;;31.15;22.67;;;;;;;;;;5095443;28;20024;-74
2021/12/19 08:59:36;;;;;;;33.83;22.90;;;;;;;;;;5095616;28;20161;-74
2021/12/19 09:02:02;;;;;;;40.92;28.38;;;;;;;;;;5095552;28;20020;-75
2021/12/19 09:04:28;;;;;;;46.10;27.45;;;;;;;;;;5094083;28;20016;-73
2021/12/19 09:06:56;;;;;;;28.83;18.77;;;;;;;;;;5094121;28;20083;-75
2021/12/19 09:09:21;;;;;;;28.20;18.90;;;;;;;;;;5095062;28;20045;-75
2021/12/19 09:11:46;;;;;;;35.60;26.42;;;;;;;;;;5079817;28;20027;-77
2021/12/19 09:14:12;;;;;;;32.55;21.63;;;;;;;;;;5071444;28;20400;-76
2021/12/19 09:16:37;;;;;;;29.17;16.98;;;;;;;;;;5074031;28;20065;-77
2021/12/19 09:19:02;;;;;;;53.38;25.00;;;;;;;;;;5077933;28;20028;-77
2021/12/19 09:21:28;;;;;;;189.60;87.47;;;;;;;;;;5079989;28;20462;-77
2021/12/19 09:23:53;;;;;;;120.47;68.75;;;;;;;;;;5074092;28;20020;-77
2021/12/19 09:26:18;;;;;;;52.40;34.72;;;;;;;;;;5101319;28;20038;-79
2021/12/19 09:28:44;;;;;;;45.40;27.48;;;;;;;;;;5092972;28;20428;-78
2021/12/19 09:31:09;;;;;;;58.63;34.72;;;;;;;;;;5093608;28;20020;-78
2021/12/19 09:33:35;;;;;;;59.55;34.33;;;;;;;;;;5093187;28;20019;-77
2021/12/19 09:36:16;;;;;;;32.20;20.05;;;;;;;;;;5103692;28;20528;-78
2021/12/19 09:38:43;;;;;;;76.25;41.25;;;;;;;;;;5096117;28;20387;-79
2021/12/19 09:41:14;;;;;;;55.42;32.95;;;;;;;;;;5097913;28;20023;-76
2021/12/19 09:43:43;;;;;;;55.22;36.40;;;;;;;;;;5106064;28;20038;-78
2021/12/19 09:46:10;;;;;;;52.17;34.77;;;;;;;;;;5105074;27;20023;-77
2021/12/19 09:48:37;;;;;;;52.00;36.30;;;;;;;;;;5107367;27;20243;-77
2021/12/19 09:51:03;;;;;;;52.63;31.88;;;;;;;;;;5109013;27;20011;-77
2021/12/19 09:53:28;;;;;;;34.75;21.38;;;;;;;;;;5106081;27;20018;-77
2021/12/19 09:55:53;;;;;;;44.80;30.73;;;;;;;;;;5105693;27;20015;-76
2021/12/19 09:58:19;;;;;;;58.58;34.13;;;;;;;;;;5107807;27;20844;-77
2021/12/19 10:00:44;;;;;;;32.90;24.90;;;;;;;;;;5107381;27;20514;-77
2021/12/19 10:03:15;;;;;;;29.70;21.17;;;;;;;;;;5106425;27;20019;-78
2021/12/19 10:05:40;;;;;;;26.08;17.92;;;;;;;;;;5096815;28;20131;-78
2021/12/19 10:08:06;;;;;;;38.40;24.15;;;;;;;;;;5096217;28;20111;-75
2021/12/19 10:10:36;;;;;;;28.13;22.05;;;;;;;;;;5096376;28;20469;-77
2021/12/19 10:13:02;;;;;;;29.38;17.38;;;;;;;;;;5097814;28;20026;-78
2021/12/19 10:15:35;;;;;;;24.42;15.98;;;;;;;;;;5097685;28;20019;-75
2021/12/19 10:18:02;;;;;;;77.07;39.50;;;;;;;;;;5096124;28;20084;-77
2021/12/19 10:20:38;;;;;;;39.08;22.40;;;;;;;;;;5096163;28;20024;-77
2021/12/19 10:23:15;;;;;;;43.67;27.58;;;;;;;;;;5097237;28;20019;-77
2021/12/19 10:25:40;;;;;;;24.85;16.55;;;;;;;;;;5096528;28;20050;-77
2021/12/19 10:28:08;;;;;;;35.95;20.00;;;;;;;;;;5096359;28;20354;-78
2021/12/19 10:30:38;;;;;;;29.20;17.35;;;;;;;;;;5095789;28;20016;-77
2021/12/19 10:33:13;;;;;;;27.40;16.70;;;;;;;;;;5097732;28;20023;-77
2021/12/19 10:35:44;;;;;;;35.53;21.17;;;;;;;;;;5098814;28;20027;-76
2021/12/19 10:38:15;;;;;;;36.42;23.30;;;;;;;;;;5097782;28;20047;-78
2021/12/19 10:40:45;;;;;;;40.55;26.33;;;;;;;;;;5095816;28;20143;-77
2021/12/19 10:43:16;;;;;;;78.25;50.70;;;;;;;;;;5095972;28;20015;-77
2021/12/19 10:45:47;;;;;;;29.08;21.55;;;;;;;;;;5095882;28;20095;-77
2021/12/19 10:48:18;;;;;;;34.90;24.45;;;;;;;;;;5096004;28;20157;-78
2021/12/19 10:50:46;;;;;;;46.70;29.42;;;;;;;;;;5097374;28;20031;-75
2021/12/19 10:53:12;;;;;;;31.92;23.13;;;;;;;;;;5098161;28;20080;-77
2021/12/19 10:55:46;;;;;;;50.50;33.60;;;;;;;;;;5095427;28;20157;-78
2021/12/19 10:58:23;;;;;;;41.20;24.77;;;;;;;;;;5095460;28;20080;-76
2021/12/19 11:01:04;;;;;;;45.47;29.38;;;;;;;;;;5102619;27;20031;-77
2021/12/19 11:03:41;;;;;;;62.72;33.22;;;;;;;;;;5101709;27;20988;-78
2021/12/19 11:06:36;;;;;;;28.48;18.02;;;;;;;;;;5103416;27;20019;-79
2021/12/19 11:09:06;;;;;;;54.10;36.13;;;;;;;;;;5081602;27;20035;-78
2021/12/19 11:11:34;;;;;;;47.20;30.83;;;;;;;;;;5105424;27;20065;-78
2021/12/19 11:13:59;;;;;;;41.10;26.30;;;;;;;;;;5105195;27;20095;-78
2021/12/19 11:16:25;;;;;;;44.03;24.88;;;;;;;;;;5107174;27;20086;-79
2021/12/19 11:18:50;;;;;;;34.20;21.13;;;;;;;;;;5104712;27;20030;-77
2021/12/19 11:21:17;;;;;;;50.45;33.25;;;;;;;;;;5099062;27;20019;-79
2021/12/19 11:23:43;;;;;;;39.10;25.85;;;;;;;;;;5102449;27;20011;-77
2021/12/19 11:26:08;;;;;;;42.47;26.77;;;;;;;;;;5106202;27;20084;-78
2021/12/19 11:28:34;;;;;;;27.73;19.67;;;;;;;;;;5110799;27;20019;-77
2021/12/19 11:30:59;;;;;;;28.80;21.15;;;;;;;;;;5116769;27;20023;-77
2021/12/19 11:33:31;;;;;;;24.52;17.20;;;;;;;;;;5115219;27;20511;-77
2021/12/19 11:35:57;;;;;;;39.03;26.15;;;;;;;;;;5116333;27;20019;-76
2021/12/19 11:38:23;;;;;;;46.67;33.40;;;;;;;;;;5115345;27;20039;-79
2021/12/19 11:40:50;;;;;;;55.45;34.65;;;;;;;;;;5105721;27;20023;-78
2021/12/19 11:43:16;;;;;;;40.60;26.70;;;;;;;;;;5108400;27;20047;-77
2021/12/19 11:45:46;;;;;;;38.15;24.48;;;;;;;;;;5105160;27;20047;-78
2021/12/19 11:50:53;;;;;;;36.65;22.45;;;;;;;;;;5075277;28;20016;-77
2021/12/19 11:53:18;;;;;;;41.42;28.20;;;;;;;;;;5074490;28;20020;-78
2021/12/19 11:55:43;;;;;;;35.55;22.50;;;;;;;;;;5075168;28;20069;-75
2021/12/19 11:58:09;;;;;;;30.80;20.35;;;;;;;;;;5075864;28;20071;-76
2021/12/19 12:00:34;;;;;;;26.23;18.02;;;;;;;;;;5075684;28;20051;-76
2021/12/19 12:03:12;;;;;;;29.10;18.95;;;;;;;;;;5074127;28;20580;-78
2021/12/19 12:05:41;;;;;;;26.95;18.85;;;;;;;;;;5074216;28;20082;-75
2021/12/19 12:08:10;;;;;;;28.45;18.10;;;;;;;;;;5073612;28;20019;-76
2021/12/19 12:11:00;;;;;;;27.10;19.55;;;;;;;;;;5073649;28;20032;-76
2021/12/19 12:13:27;;;;;;;30.45;22.05;;;;;;;;;;5075244;28;20038;-78
2021/12/19 12:16:04;;;;;;;28.05;17.67;;;;;;;;;;5075133;28;20088;-75
2021/12/19 12:18:30;;;;;;;26.20;18.52;;;;;;;;;;5072265;28;20414;-76
2021/12/19 12:20:56;;;;;;;28.00;18.45;;;;;;;;;;5070889;28;20028;-75
2021/12/19 12:23:25;;;;;;;34.30;24.50;;;;;;;;;;5072285;28;20030;-74
2021/12/19 12:25:51;;;;;;;35.78;23.40;;;;;;;;;;5071736;28;20509;-76
2021/12/19 12:28:17;;;;;;;43.80;32.25;;;;;;;;;;5072917;28;20055;-75
2021/12/19 12:30:47;;;;;;;36.40;24.83;;;;;;;;;;5072366;28;20169;-76
2021/12/19 12:33:14;;;;;;;50.65;35.05;;;;;;;;;;5071876;28;20020;-76
2021/12/19 12:35:40;;;;;;;41.78;24.75;;;;;;;;;;5073258;28;20070;-76
2021/12/19 12:38:07;;;;;;;45.17;28.50;;;;;;;;;;5072097;28;20476;-78
2021/12/19 12:41:04;;;;;;;33.40;20.73;;;;;;;;;;5073575;28;20031;-76
2021/12/19 12:43:30;;;;;;;31.17;19.38;;;;;;;;;;5073214;28;20023;-75
2021/12/19 12:46:22;;;;;;;57.83;35.15;;;;;;;;;;5075036;28;20070;-76
2021/12/19 12:48:52;;;;;;;41.30;25.48;;;;;;;;;;5069256;28;21210;-76
2021/12/19 12:51:19;;;;;;;35.65;21.60;;;;;;;;;;5074977;28;20042;-78
2021/12/19 12:53:46;;;;;;;32.95;22.35;;;;;;;;;;5075515;28;20025;-77
2021/12/19 12:56:14;;;;;;;46.80;26.70;;;;;;;;;;5074989;28;20019;-77
2021/12/19 12:58:41;;;;;;;36.60;22.95;;;;;;;;;;5075707;28;20042;-76
2021/12/19 13:01:13;;;;;;;34.33;21.23;;;;;;;;;;5073318;28;20020;-75
2021/12/19 13:03:38;;;;;;;31.98;21.40;;;;;;;;;;5073216;28;20020;-77
2021/12/19 13:06:04;;;;;;;35.10;22.08;;;;;;;;;;5075874;28;20027;-76
2021/12/19 13:08:29;;;;;;;39.70;25.48;;;;;;;;;;5074685;28;20024;-76
2021/12/19 13:10:55;;;;;;;45.03;30.42;;;;;;;;;;5072773;28;20455;-77
2021/12/19 13:13:30;;;;;;;49.00;32.53;;;;;;;;;;5074872;28;20077;-76
2021/12/19 13:16:05;;;;;;;32.60;22.38;;;;;;;;;;5073431;28;20039;-77
2021/12/19 13:18:30;;;;;;;39.67;24.58;;;;;;;;;;5075380;28;20022;-76
2021/12/19 13:21:03;;;;;;;68.72;43.10;;;;;;;;;;5075183;28;20395;-77
2021/12/19 13:23:28;;;;;;;54.75;34.80;;;;;;;;;;5077093;28;20107;-77
2021/12/19 13:26:01;;;;;;;37.63;25.92;;;;;;;;;;5077055;28;20114;-77
2021/12/19 13:28:26;;;;;;;35.33;26.77;;;;;;;;;;5078464;28;20035;-76
2021/12/19 13:30:54;;;;;;;26.98;19.42;;;;;;;;;;5078821;28;20028;-76
2021/12/19 13:33:21;;;;;;;23.38;15.68;;;;;;;;;;5076764;28;20016;-77
2021/12/19 13:35:51;;;;;;;21.75;16.30;;;;;;;;;;5077176;28;20008;-77
2021/12/19 13:38:23;;;;;;;25.98;17.95;;;;;;;;;;5078527;28;20076;-77
2021/12/19 13:40:49;;;;;;;28.55;20.58;;;;;;;;;;5076570;28;20036;-76
2021/12/19 13:43:17;;;;;;;28.27;16.88;;;;;;;;;;5076911;28;20403;-76
2021/12/19 13:45:44;;;;;;;29.80;20.17;;;;;;;;;;5077124;28;20494;-76
2021/12/19 13:48:12;;;;;;;27.60;20.38;;;;;;;;;;5085268;28;20051;-77
2021/12/19 13:50:42;;;;;;;26.38;18.52;;;;;;;;;;5080368;28;20618;-77
2021/12/19 13:55:04;;;;;;;30.75;20.05;;;;;;;;;;5121900;27;20885;-79
2021/12/19 13:57:29;;;;;;;29.42;20.58;;;;;;;;;;5110942;28;20023;-75
2021/12/19 13:59:55;;;;;;;30.63;20.52;;;;;;;;;;5110094;28;20023;-76
2021/12/19 14:02:20;;;;;;;30.83;17.52;;;;;;;;;;5101101;28;20110;-76
2021/12/19 14:04:45;;;;;;;24.27;16.92;;;;;;;;;;5101287;28;20515;-77
2021/12/19 14:07:13;;;;;;;21.63;15.95;;;;;;;;;;5110057;28;20331;-76
2021/12/19 14:09:43;;;;;;;24.15;16.00;;;;;;;;;;5111422;27;20102;-76
2021/12/19 14:12:11;;;;;;;23.45;15.85;;;;;;;;;;5111797;27;20565;-75
2021/12/19 14:14:37;;;;;;;19.50;13.95;;;;;;;;;;5111756;27;20058;-77
2021/12/19 14:17:04;;;;;;;23.17;15.95;;;;;;;;;;5110391;28;20054;-76
2021/12/19 14:19:31;;;;;;;26.63;17.80;;;;;;;;;;5110566;28;20110;-76
2021/12/19 14:22:08;;;;;;;47.13;25.27;;;;;;;;;;5111807;27;20050;-75
2021/12/19 14:24:41;;;;;;;26.00;16.80;;;;;;;;;;5113460;27;20034;-77
2021/12/19 14:27:09;;;;;;;22.00;15.43;;;;;;;;;;5111093;28;20094;-76
2021/12/19 14:29:35;;;;;;;22.42;15.85;;;;;;;;;;5107342;28;20339;-76
2021/12/19 14:32:05;;;;;;;31.17;19.67;;;;;;;;;;5113580;27;20106;-77
2021/12/19 14:34:32;;;;;;;41.80;24.90;;;;;;;;;;5112203;27;20025;-78
2021/12/19 14:37:11;;;;;;;35.70;19.77;;;;;;;;;;5090445;28;20441;-80
2021/12/19 14:39:36;;;;;;;29.20;18.75;;;;;;;;;;5098536;28;20076;-78
2021/12/19 14:42:08;;;;;;;26.55;17.23;;;;;;;;;;5098529;28;20437;-76
2021/12/19 14:44:34;;;;;;;23.15;16.20;;;;;;;;;;5100835;28;20016;-75
2021/12/19 14:47:00;;;;;;;36.67;23.17;;;;;;;;;;5100167;28;20007;-77
2021/12/19 14:49:38;;;;;;;78.05;49.55;;;;;;;;;;5100494;28;20057;-76
2021/12/19 14:52:03;;;;;;;85.45;57.92;;;;;;;;;;5102442;28;20042;-77
2021/12/19 14:54:28;;;;;;;65.85;39.78;;;;;;;;;;5100355;27;20043;-77
2021/12/19 14:56:57;;;;;;;56.22;31.80;;;;;;;;;;5108635;27;20020;-74
2021/12/19 14:59:27;;;;;;;53.45;33.13;;;;;;;;;;5105781;27;20008;-77
2021/12/19 15:01:52;;;;;;;33.58;21.42;;;;;;;;;;5098705;28;20066;-75
2021/12/19 15:04:19;;;;;;;36.15;23.52;;;;;;;;;;5098468;27;20458;-76
2021/12/19 15:06:47;;;;;;;32.95;21.60;;;;;;;;;;5087201;28;20022;-77
2021/12/19 15:09:14;;;;;;;44.10;27.10;;;;;;;;;;5085134;28;20016;-76
2021/12/19 15:11:40;;;;;;;27.33;19.02;;;;;;;;;;5086175;28;20064;-76
2021/12/19 15:14:06;;;;;;;32.05;21.88;;;;;;;;;;5088043;28;20099;-76
2021/12/19 15:16:32;;;;;;;49.58;35.60;;;;;;;;;;5085917;27;20420;-74
2021/12/19 15:18:59;;;;;;;33.65;23.95;;;;;;;;;;5093919;27;20015;-75
2021/12/19 15:21:26;;;;;;;32.20;21.73;;;;;;;;;;5095266;28;20024;-75
2021/12/19 15:23:53;;;;;;;28.38;20.83;;;;;;;;;;5077354;28;20926;-75
2021/12/19 15:26:18;;;;;;;33.88;21.40;;;;;;;;;;5078938;28;20016;-74
2021/12/19 15:28:46;;;;;;;29.02;17.45;;;;;;;;;;5096039;28;20019;-75
2021/12/19 15:31:12;;;;;;;21.20;14.45;;;;;;;;;;5098101;28;20095;-76